Latest Weather Observations for Scone Airport

IDN60801

Issued at 8:35 pm EST Wednesday 16 April 2014 (issued every 30 minutes, with the page automatically refreshed every 10 minutes)

About weather observations | Map of weather stations | Latest weather observations for NSW | Other Formats
Station Details ID: 061363 Name: SCONE AIRPORT AWS Lat: -32.03 Lon: 150.83 Height: 221.4 m
Data from the previous 72 hours. | See also: Recent months at Scone Airport
Date/Time
EST
Temp
°C
App
Temp
°C
Dew
Point
Rel
Hum
%
Delta-T
°C
Wind Press
QNH
hPa
Press
MSL
hPa
Rain
since 9 am
mm
Dir
 
Spd
km/h
Gust
km/h
Spd
kts
Gust
kts
16/08:30pm 13.2 13.6 11.4 89 1.0 SSW 0 0 0 0 1018.8 - 0.2
16/08:00pm 13.7 14.4 12.3 91 0.8 SSW 0 0 0 0 1018.4 - 0.2
16/07:30pm 14.4 14.4 12.3 87 1.2 WSW 4 6 2 3 1018.2 - 0.2
16/07:00pm 15.1 14.6 12.6 85 1.4 S 7 7 4 4 1018.0 - 0.2
16/06:30pm 15.1 14.4 11.9 81 1.8 SE 7 9 4 5 1017.7 - 0.2
16/06:00pm 16.3 15.7 12.3 77 2.2 SE 7 9 4 5 1017.5 1017.1 0.2
16/05:30pm 17.7 16.6 13.0 74 2.7 SSE 11 15 6 8 1017.1 - 0.2
16/05:00pm 19.4 18.5 13.6 69 3.3 S 11 15 6 8 1016.9 - 0.2
16/04:30pm 20.4 17.6 12.6 61 4.4 S 19 24 10 13 1016.9 - 0.2
16/04:00pm 20.6 19.6 13.3 63 4.2 S 11 13 6 7 1016.9 - 0.2
16/03:30pm 20.9 19.6 12.6 59 4.7 S 11 15 6 8 1016.7 - 0.2
16/03:00pm 21.7 20.7 13.3 59 4.9 S 11 17 6 9 1017.0 1016.6 0.2
16/02:30pm 21.1 20.5 12.3 57 5.0 SE 7 11 4 6 1017.0 - 0.2
16/02:00pm 20.6 19.6 12.3 59 4.7 ESE 9 15 5 8 1017.1 - 0.2
16/01:30pm 21.3 20.8 12.7 58 4.9 ESE 7 15 4 8 1017.2 - 0.2
16/01:00pm 20.9 20.4 12.6 59 4.7 S 7 11 4 6 1017.6 - 0.2
16/12:30pm 20.3 20.1 13.0 63 4.2 E 6 13 3 7 1018.2 - 0.2
16/12:00pm 19.3 18.6 13.2 68 3.5 SSW 9 15 5 8 1018.9 1018.5 0.2
16/11:30am 19.4 18.7 13.3 68 3.5 S 9 17 5 9 1019.2 - 0.0
16/11:00am 18.3 17.7 13.4 73 2.8 S 9 13 5 7 1019.6 - 0.0
16/10:30am 17.7 18.1 13.6 77 2.3 S 4 9 2 5 1019.8 - 0.0
16/10:00am 16.7 16.6 13.2 80 2.0 SSW 6 9 3 5 1020.0 - 0.0
16/09:30am 15.9 15.8 13.9 88 1.1 SSE 7 11 4 6 1020.0 - 0.0
16/09:00am 15.8 15.4 14.2 90 0.9 SE 9 13 5 7 1020.0 1019.6 0.6
16/08:30am 15.6 17.0 14.3 92 0.7 CALM 0 0 0 0 1019.9 - 0.6
16/08:00am 15.4 16.9 14.6 95 0.5 CALM 0 0 0 0 1019.7 - 0.6
16/07:30am 15.1 16.6 14.6 97 0.3 CALM 0 7 0 4 1019.4 - 0.6
16/07:00am 14.8 16.2 14.5 98 0.2 CALM 0 0 0 0 1019.1 - 0.6
16/06:30am 14.6 15.9 14.1 97 0.3 CALM 0 0 0 0 1019.0 - 0.6
16/06:00am 14.5 15.8 14.2 98 0.2 E 0 0 0 0 1018.8 1018.4 0.6
16/05:30am 14.6 15.6 14.3 98 0.2 W 2 6 1 3 1018.8 - 0.6
16/05:00am 14.5 14.7 14.3 99 0.1 SW 6 7 3 4 1018.7 - 0.6
16/04:30am 14.4 14.4 14.2 99 0.1 SW 7 9 4 5 1018.6 - 0.6
16/04:00am 14.4 14.4 14.2 99 0.1 S 7 9 4 5 1018.3 - 0.6
16/03:30am 14.4 15.0 14.2 99 0.1 S 4 9 2 5 1018.3 - 0.6
16/03:00am 14.3 13.9 14.1 99 0.1 S 9 11 5 6 1018.5 1018.1 0.6
16/02:30am 14.4 14.4 14.2 99 0.1 S 7 9 4 5 1018.6 - 0.6
16/02:00am 14.4 14.0 14.2 99 0.1 S 9 15 5 8 1018.7 - 0.4
16/01:30am 14.4 13.7 14.2 99 0.1 S 11 13 6 7 1019.1 - 0.4
16/01:00am 14.7 14.3 14.2 97 0.3 S 9 13 5 7 1019.2 - 0.2
16/12:30am 15.0 16.3 14.0 94 0.6 CALM 0 0 0 0 1019.3 - 0.0
16/12:00am 14.3 14.3 13.5 95 0.4 WNW 6 7 3 4 1019.3 1018.9 0.0
 
Date/Time
EST
Temp
°C
App
Temp
°C
Dew
Point
Rel
Hum
%
Delta-T
°C
Wind Press
QNH
hPa
Press
MSL
hPa
Rain
since 9 am
mm
Dir
 
Spd
km/h
Gust
km/h
Spd
kts
Gust
kts
15/11:30pm 14.1 14.1 13.5 96 0.3 WNW 6 7 3 4 1019.3 - 0.0
15/11:00pm 13.8 14.7 13.0 95 0.4 CALM 0 0 0 0 1019.4 - 0.0
15/10:30pm 13.4 14.1 12.1 92 0.7 CALM 0 0 0 0 1019.6 - 0.0
15/10:00pm 14.3 15.2 12.9 91 0.8 CALM 0 0 0 0 1019.7 - 0.0
15/09:30pm 14.3 15.1 12.5 89 1.0 CALM 0 0 0 0 1019.5 - 0.0
15/09:00pm 14.7 15.5 12.7 88 1.1 CALM 0 0 0 0 1019.5 1019.1 0.0
15/08:30pm 15.0 14.6 12.9 87 1.2 NW 7 9 4 5 1019.4 - 0.0
15/08:00pm 16.0 16.9 12.9 82 1.7 CALM 0 0 0 0 1019.2 - 0.0
15/07:30pm 16.6 17.1 12.9 79 2.1 E 2 9 1 5 1019.1 - 0.0
15/07:00pm 17.2 15.5 12.5 74 2.6 ESE 13 17 7 9 1019.0 - 0.0
15/06:30pm 17.5 16.2 12.4 72 2.9 SE 11 17 6 9 1018.6 - 0.0
15/06:00pm 17.5 16.7 12.8 74 2.6 SE 9 11 5 6 1018.1 1017.7 0.0
15/05:30pm 17.8 16.6 12.9 73 2.8 SSE 11 13 6 7 1017.9 - 0.0
15/05:00pm 18.5 16.8 12.5 68 3.4 SSE 13 19 7 10 1017.8 - 0.0
15/04:30pm 19.1 16.2 12.4 65 3.8 SSE 19 28 10 15 1017.6 - 0.0
15/04:00pm 19.6 16.1 12.1 62 4.2 SSE 22 28 12 15 1017.6 - 0.0
15/03:30pm 19.8 16.2 11.8 60 4.5 SSE 22 28 12 15 1017.5 - 0.0
15/03:00pm 21.0 16.9 11.6 55 5.3 S 24 32 13 17 1017.4 1017.0 0.0
15/02:30pm 21.5 18.4 11.5 53 5.6 S 19 26 10 14 1017.4 - 0.0
15/02:00pm 21.5 18.9 12.1 55 5.3 S 17 24 9 13 1017.4 - 0.0
15/01:30pm 21.1 18.3 11.4 54 5.4 S 17 26 9 14 1017.4 - 0.0
15/01:00pm 20.5 17.7 11.4 56 5.1 S 17 24 9 13 1017.9 - 0.0
15/12:30pm 21.1 18.5 12.0 56 5.1 S 17 24 9 13 1018.2 - 0.0
15/12:00pm 20.2 18.3 12.9 63 4.2 S 15 20 8 11 1018.9 1018.5 0.0
15/11:30am 19.8 17.4 12.8 64 4.0 S 17 24 9 13 1019.4 - 0.0
15/11:00am 19.2 17.4 13.4 69 3.3 SSE 15 22 8 12 1019.6 - 0.0
15/10:30am 19.2 17.6 12.9 67 3.6 SSE 13 19 7 10 1020.0 - 0.0
15/10:00am 18.1 16.0 12.5 70 3.1 S 15 20 8 11 1020.3 - 0.0
15/09:30am 17.1 14.2 12.4 74 2.6 S 19 22 10 12 1020.6 - 0.0
15/09:00am 16.8 14.2 12.1 74 2.6 S 17 20 9 11 1020.8 1020.5 0.0
15/08:30am 16.7 15.6 13.0 79 2.1 S 11 13 6 7 1020.5 - 0.0
15/08:00am 16.1 15.8 13.2 83 1.6 SSE 7 13 4 7 1020.3 - 0.0
15/07:30am 15.0 15.2 14.2 95 0.5 SSE 6 9 3 5 1020.1 - 0.0
15/07:00am 13.8 14.1 13.3 97 0.3 SSE 4 9 2 5 1019.8 - 0.0
15/06:30am 13.2 12.6 12.4 95 0.4 SSE 7 11 4 6 1019.6 - 0.0
15/06:00am 13.6 12.0 12.8 95 0.4 S 13 15 7 8 1019.4 1019.0 0.0
15/05:30am 14.0 12.9 13.2 95 0.4 S 11 13 6 7 1019.2 - 0.0
15/05:00am 14.5 13.9 13.5 94 0.6 S 9 13 5 7 1019.1 - 0.0
15/04:30am 14.6 13.7 13.8 95 0.5 S 11 15 6 8 1019.1 - 0.0
15/04:00am 14.6 13.4 14.0 96 0.3 S 13 19 7 10 1019.0 - 0.0
15/03:30am 14.6 13.0 14.0 96 0.3 S 15 20 8 11 1019.1 - 0.0
15/03:00am 14.7 13.5 13.9 95 0.5 S 13 17 7 9 1019.2 1018.8 0.0
15/02:30am 14.8 14.3 13.7 93 0.6 S 9 11 5 6 1019.4 - 0.0
15/02:00am 14.8 14.3 13.7 93 0.6 S 9 13 5 7 1019.5 - 0.0
15/01:30am 14.7 13.4 13.6 93 0.6 S 13 17 7 9 1019.7 - 0.0
15/01:00am 14.7 12.6 13.6 93 0.6 SSE 17 22 9 12 1019.7 - 0.0
15/12:30am 14.8 12.2 13.3 91 0.8 S 19 24 10 13 1019.9 - 0.0
15/12:00am 14.8 13.7 13.2 90 0.9 S 11 15 6 8 1019.8 1019.4 0.0
 
Date/Time
EST
Temp
°C
App
Temp
°C
Dew
Point
Rel
Hum
%
Delta-T
°C
Wind Press
QNH
hPa
Press
MSL
hPa
Rain
since 9 am
mm
Dir
 
Spd
km/h
Gust
km/h
Spd
kts
Gust
kts
14/11:30pm 15.1 13.6 13.1 88 1.1 SSE 13 17 7 9 1019.8 - 0.0
14/11:00pm 15.1 14.1 13.3 89 1.0 S 11 15 6 8 1020.0 - 0.0
14/10:30pm 15.2 14.5 13.1 87 1.2 SE 9 15 5 8 1020.2 - 0.0
14/10:00pm 14.6 14.4 13.0 90 0.9 SSE 6 7 3 4 1020.5 - 0.0
14/09:30pm 14.8 14.4 13.0 89 1.0 S 7 7 4 4 1020.5 - 0.0
14/09:00pm 15.2 14.5 13.1 87 1.2 S 9 9 5 5 1020.5 1020.1 0.0
14/08:30pm 15.0 14.2 13.0 88 1.1 SSE 9 11 5 6 1020.3 - 0.0
14/08:00pm 15.3 14.2 13.1 87 1.2 S 11 17 6 9 1020.1 - 0.0
14/07:30pm 15.2 12.8 12.7 85 1.4 S 17 20 9 11 1019.7 - 0.0
14/07:00pm 15.3 12.8 12.2 82 1.7 SSE 17 20 9 11 1019.3 - 0.0
14/06:30pm 16.1 13.7 12.5 79 2.0 SSE 17 22 9 12 1018.8 - 0.0
14/06:00pm 16.7 14.3 12.7 77 2.2 S 17 22 9 12 1018.4 1018.0 0.0
14/05:30pm 17.4 14.5 12.3 72 2.8 S 19 26 10 14 1018.0 - 0.0
14/05:00pm 18.9 15.0 12.2 65 3.8 SSE 24 30 13 16 1017.7 - 0.0
14/04:30pm 19.9 15.8 12.7 63 4.1 SSE 26 33 14 18 1017.3 - 0.0
14/04:00pm 20.7 15.8 12.4 59 4.7 S 30 41 16 22 1017.0 - 0.0
14/03:30pm 21.3 16.7 12.4 57 5.1 SSE 28 37 15 20 1016.7 - 0.0
14/03:00pm 21.6 17.3 12.2 55 5.3 S 26 35 14 19 1016.5 1016.1 0.0
14/02:30pm 21.9 17.8 11.3 51 5.9 SSE 24 32 13 17 1016.6 - 0.0
14/02:00pm 21.8 18.2 11.8 53 5.7 SSE 22 33 12 18 1016.7 - 0.0
14/01:30pm 22.0 18.2 12.3 54 5.5 SSE 24 33 13 18 1017.0 - 0.0
14/01:00pm 21.8 18.2 12.9 57 5.1 SSE 24 33 13 18 1017.3 - 0.0
14/12:30pm 21.2 18.0 11.8 55 5.3 SSE 20 30 11 16 1017.6 - 0.0
14/12:00pm 20.9 18.2 13.4 62 4.3 S 20 28 11 15 1018.2 1017.8 0.0
14/11:30am 20.4 17.7 12.9 62 4.3 S 19 28 10 15 1018.6 - 0.0
14/11:00am 19.8 16.7 12.3 62 4.2 SSE 20 26 11 14 1018.9 - 0.0
14/10:30am 19.2 16.2 12.0 63 4.0 S 19 26 10 14 1019.2 - 0.0
14/10:00am 19.1 16.3 12.6 66 3.7 S 19 24 10 13 1019.5 - 0.0
14/09:30am 17.9 14.8 11.7 67 3.4 S 19 22 10 12 1019.7 - 0.0
14/09:00am 17.0 14.9 11.3 69 3.1 S 13 19 7 10 1020.0 1019.6 0.0
14/08:30am 15.7 12.4 10.9 73 2.6 S 19 20 10 11 1019.7 - 0.0
14/08:00am 15.7 14.2 11.9 78 2.1 S 11 17 6 9 1019.5 - 0.0
14/07:30am 14.8 13.2 11.6 81 1.7 S 11 15 6 8 1019.1 - 0.0
14/07:00am 13.2 11.9 11.1 87 1.1 S 9 13 5 7 1018.8 - 0.0
14/06:30am 12.8 11.2 10.3 85 1.3 S 9 11 5 6 1018.5 - 0.0
14/06:00am 13.2 11.0 10.7 85 1.3 S 13 15 7 8 1018.3 1017.9 0.0
14/05:30am 13.6 11.5 11.1 85 1.3 S 13 17 7 9 1018.3 - 0.0
14/05:00am 14.0 11.9 11.3 84 1.5 S 13 15 7 8 1018.0 - 0.0
14/04:30am 14.9 13.8 12.0 83 1.6 SSE 9 11 5 6 1018.0 - 0.0
14/04:00am 15.3 14.0 12.4 83 1.6 S 11 15 6 8 1017.8 - 0.0
14/03:30am 15.3 14.0 12.6 84 1.5 S 11 13 6 7 1017.6 - 0.0
14/03:00am 15.7 13.8 13.0 84 1.5 S 15 17 8 9 1017.5 1017.1 0.0
14/02:30am 15.7 15.2 13.9 89 1.0 S 9 13 5 7 1017.8 - 0.0
14/02:00am 15.7 16.9 13.9 89 1.0 CALM 0 0 0 0 1017.9 - 0.0
14/01:30am 15.8 16.7 14.0 89 1.0 SE 2 7 1 4 1018.0 - 0.0
14/01:00am 15.8 15.8 14.2 90 0.9 SSE 7 9 4 5 1018.2 - 0.0
14/12:30am 15.8 15.3 13.8 88 1.1 S 9 13 5 7 1018.3 - 0.0
14/12:00am 15.7 14.4 13.7 88 1.1 S 13 15 7 8 1018.4 1018.0 0.0
 
Date/Time
EST
Temp
°C
App
Temp
°C
Dew
Point
Rel
Hum
%
Delta-T
°C
Wind Press
QNH
hPa
Press
MSL
hPa
Rain
since 9 am
mm
Dir
 
Spd
km/h
Gust
km/h
Spd
kts
Gust
kts
13/11:30pm 15.7 14.7 13.5 87 1.2 S 11 13 6 7 1018.6 - 0.0
13/11:00pm 15.5 14.5 13.3 87 1.2 S 11 13 6 7 1018.7 - 0.0
13/10:30pm 15.1 13.7 13.3 89 1.0 S 13 17 7 9 1018.8 - 0.0
13/10:00pm 14.7 13.1 12.9 89 1.0 S 13 17 7 9 1018.9 - 0.0
13/09:30pm 14.8 13.0 13.2 90 0.9 S 15 17 8 9 1018.9 - 0.0
13/09:00pm 15.1 12.8 13.1 88 1.1 S 17 20 9 11 1018.7 1018.3 0.0

Other Formats:

Comma delimited format used in spreadsheet applications
http://www.bom.gov.au/fwo/IDN60801/IDN60801.95758.axf

JavaScript Object Notation format (JSON) in row-major order
http://www.bom.gov.au/fwo/IDN60801/IDN60801.95758.json